Time;durP1;ratioP1;P1;durP2;ratioP2;P2;SDS_P1;SDS_P2;PMS_P1;PMS_P2;Temp;Humidity;BMP_temperature;BMP_pressure;BME280_temperature;BME280_humidity;BME280_pressure;Samples;Min_cycle;Max_cycle;Signal;HPM_P1;HPM_P2
2022/07/01 00:00:47;;;;;;;7.50;3.42;;;;;;;26.35;45.82;94943.47;5021404;28;20056;-53
2022/07/01 00:03:12;;;;;;;4.97;3.10;;;;;;;26.30;45.86;94946.31;5020222;28;20132;-54
2022/07/01 00:05:38;;;;;;;7.28;3.28;;;;;;;26.35;45.72;94939.97;5021360;28;20416;-53
2022/07/01 00:08:03;;;;;;;6.45;3.22;;;;;;;26.31;45.76;94936.84;5022811;28;20026;-55
2022/07/01 00:10:29;;;;;;;5.55;3.70;;;;;;;26.29;45.83;94929.16;5022860;28;20519;-54
2022/07/01 00:12:54;;;;;;;7.40;3.33;;;;;;;26.28;45.49;94929.69;5022612;28;20021;-54
2022/07/01 00:15:20;;;;;;;6.07;3.55;;;;;;;26.26;45.88;94936.94;5021635;28;20408;-54
2022/07/01 00:17:46;;;;;;;6.70;3.63;;;;;;;26.23;46.05;94944.19;5012603;28;20026;-53
2022/07/01 00:20:11;;;;;;;7.07;3.40;;;;;;;26.18;46.16;94945.03;5005854;28;20858;-53
2022/07/01 00:22:37;;;;;;;7.65;3.30;;;;;;;26.17;45.99;94945.56;5023678;28;20080;-52
2022/07/01 00:25:02;;;;;;;7.15;3.20;;;;;;;26.15;46.66;94951.56;5001096;28;20365;-52
2022/07/01 00:27:28;;;;;;;4.47;2.95;;;;;;;26.12;46.47;94954.66;5005279;28;20018;-55
2022/07/01 00:29:53;;;;;;;7.22;3.38;;;;;;;26.06;46.86;94954.03;5021686;28;20428;-52
2022/07/01 00:32:19;;;;;;;4.78;3.03;;;;;;;26.06;46.73;94960.22;5019901;28;20033;-54
2022/07/01 00:34:44;;;;;;;4.70;2.83;;;;;;;25.98;47.10;94956.66;5013134;28;20526;-55
2022/07/01 00:37:10;;;;;;;6.10;3.05;;;;;;;25.97;47.16;94957.19;4996547;28;20022;-55
2022/07/01 00:39:36;;;;;;;5.72;3.33;;;;;;;25.95;47.72;94960.44;5021835;28;20467;-54
2022/07/01 00:42:03;;;;;;;4.47;2.78;;;;;;;25.99;46.89;94949.94;5021494;28;20754;-53
2022/07/01 00:44:29;;;;;;;6.95;3.70;;;;;;;25.97;46.99;94957.91;5010636;28;20033;-53
2022/07/01 00:46:54;;;;;;;4.70;3.30;;;;;;;25.88;46.84;94961.06;5009164;28;20056;-53
2022/07/01 00:49:20;;;;;;;6.35;3.13;;;;;;;25.85;47.27;94962.13;5000257;28;20018;-52
2022/07/01 00:51:45;;;;;;;7.07;3.35;;;;;;;25.86;47.53;94954.69;5020249;28;20037;-51
2022/07/01 00:54:11;;;;;;;6.72;3.60;;;;;;;25.80;47.53;94952.03;5027164;28;20022;-54
2022/07/01 00:56:37;;;;;;;5.00;3.33;;;;;;;25.80;47.72;94949.28;5024044;28;20092;-54
2022/07/01 00:59:04;;;;;;;7.13;3.35;;;;;;;25.81;47.89;94956.25;5024132;28;20507;-53
2022/07/01 01:01:29;;;;;;;7.15;3.83;;;;;;;25.79;48.24;94958.75;5014913;28;20033;-55
2022/07/01 01:03:55;;;;;;;6.35;3.40;;;;;;;25.76;48.21;94958.34;5016911;28;20205;-53
2022/07/01 01:06:20;;;;;;;8.60;3.72;;;;;;;25.72;48.44;94952.44;5014808;28;20014;-52
2022/07/01 01:08:46;;;;;;;7.45;3.42;;;;;;;25.72;48.66;94955.19;4997501;28;20017;-53
2022/07/01 01:11:12;;;;;;;8.07;3.13;;;;;;;25.68;48.77;94963.72;4995317;28;20030;-54
2022/07/01 01:13:37;;;;;;;5.50;2.90;;;;;;;25.63;48.46;94963.78;5009027;28;20030;-56
2022/07/01 01:16:03;;;;;;;8.55;4.00;;;;;;;25.63;48.50;94966.50;5023936;28;20132;-54
2022/07/01 01:18:28;;;;;;;6.63;3.25;;;;;;;25.58;48.85;94964.63;5013474;28;20507;-54
2022/07/01 01:20:54;;;;;;;8.60;3.38;;;;;;;25.60;49.01;94959.34;5022911;28;20037;-55
2022/07/01 01:23:19;;;;;;;5.60;3.00;;;;;;;25.57;48.98;94954.94;5016373;28;20500;-54
2022/07/01 01:25:47;;;;;;;7.97;2.85;;;;;;;25.55;49.39;94949.28;5012165;28;20036;-53
2022/07/01 01:28:12;;;;;;;6.60;3.83;;;;;;;25.53;49.23;94951.78;4995437;28;20053;-53
2022/07/01 01:30:38;;;;;;;5.32;2.92;;;;;;;25.49;49.62;94946.63;5020503;28;20033;-59
2022/07/01 01:33:03;;;;;;;7.80;2.90;;;;;;;25.46;49.79;94952.41;5023715;28;20029;-54
2022/07/01 01:35:29;;;;;;;5.65;3.28;;;;;;;25.44;49.92;94954.91;5019603;28;20580;-55
2022/07/01 01:37:54;;;;;;;5.93;3.00;;;;;;;25.45;50.00;94950.94;5021768;28;20056;-54
2022/07/01 01:40:19;;;;;;;5.72;3.65;;;;;;;25.44;49.77;94965.84;5012726;28;20033;-53
2022/07/01 01:42:47;;;;;;;6.43;3.47;;;;;;;25.40;50.04;94959.97;5020163;28;20029;-54
2022/07/01 01:45:13;;;;;;;7.82;3.75;;;;;;;25.34;50.14;94962.78;5022939;28;20033;-54
2022/07/01 01:47:38;;;;;;;7.10;3.80;;;;;;;25.33;50.48;94955.88;5024238;28;20116;-54
2022/07/01 01:50:05;;;;;;;7.82;3.63;;;;;;;25.29;50.36;94965.66;5001413;28;20052;-54
2022/07/01 01:52:31;;;;;;;7.07;3.85;;;;;;;25.32;50.54;94970.06;5016474;28;20014;-54
2022/07/01 01:54:57;;;;;;;8.55;3.90;;;;;;;25.30;50.25;94971.84;5019152;28;20018;-53
2022/07/01 01:57:22;;;;;;;6.97;3.60;;;;;;;25.25;50.48;94978.16;5019689;28;20018;-53
2022/07/01 01:59:47;;;;;;;6.55;3.97;;;;;;;25.19;50.71;94980.97;5019594;28;20558;-52
2022/07/01 02:02:13;;;;;;;11.23;4.10;;;;;;;25.21;50.89;94970.22;5008316;28;20034;-53
2022/07/01 02:04:38;;;;;;;25.60;23.30;;;;;;;25.20;50.50;94968.78;5016754;28;20041;-51
2022/07/01 02:07:04;;;;;;;1104.88;919.03;;;;;;;25.18;50.62;94965.81;5018196;28;20084;-53
2022/07/01 02:09:30;;;;;;;1281.50;999.90;;;;;;;25.11;50.80;94969.19;5002213;28;20037;-53
2022/07/01 02:11:55;;;;;;;1263.88;999.90;;;;;;;25.10;51.24;94975.88;5001478;28;20029;-55
2022/07/01 02:14:21;;;;;;;1275.72;999.90;;;;;;;25.09;50.91;94979.88;5016091;28;20033;-52
2022/07/01 02:16:46;;;;;;;1366.00;999.90;;;;;;;25.10;51.16;94978.63;5018692;28;20022;-52
2022/07/01 02:19:12;;;;;;;1702.47;999.90;;;;;;;25.11;51.01;94982.06;5020620;28;20562;-54
2022/07/01 02:21:37;;;;;;;12.73;9.70;;;;;;;25.07;50.99;94985.13;5017058;28;20057;-52
2022/07/01 02:24:03;;;;;;;6.68;5.45;;;;;;;25.09;51.24;94971.66;5010666;28;20506;-52
2022/07/01 02:26:28;;;;;;;10.43;5.45;;;;;;;25.10;51.13;94981.34;5018892;28;20026;-52
2022/07/01 02:28:54;;;;;;;11.25;6.57;;;;;;;25.01;51.63;94989.94;5018279;28;20025;-52
2022/07/01 02:31:19;;;;;;;9.88;4.78;;;;;;;25.05;51.50;94995.84;5019424;28;20076;-53
2022/07/01 02:33:45;;;;;;;7.65;4.60;;;;;;;24.98;51.76;94999.16;5020220;28;20006;-52
2022/07/01 02:36:10;;;;;;;8.23;4.82;;;;;;;24.94;51.78;95004.16;5017742;28;20026;-52
2022/07/01 02:38:36;;;;;;;7.75;4.05;;;;;;;24.91;52.00;95002.47;5019778;28;20522;-53
2022/07/01 02:41:01;;;;;;;585.25;351.85;;;;;;;24.90;51.83;95001.00;5012433;28;20405;-52
2022/07/01 02:43:26;;;;;;;495.33;280.55;;;;;;;24.92;51.86;95003.22;5019196;28;20076;-52
2022/07/01 02:45:52;;;;;;;1230.63;881.80;;;;;;;24.92;51.65;95003.97;5005015;28;20033;-51
2022/07/01 02:48:17;;;;;;;1201.00;902.78;;;;;;;24.85;52.03;95010.00;5006357;28;20029;-52
2022/07/01 02:50:43;;;;;;;730.80;525.80;;;;;;;24.85;51.90;95014.75;5017750;28;20670;-52
2022/07/01 02:53:08;;;;;;;615.03;386.15;;;;;;;24.84;52.37;95008.56;5008503;28;20030;-51
2022/07/01 02:55:34;;;;;;;572.20;347.50;;;;;;;24.87;52.01;95012.97;5020088;28;20408;-52
2022/07/01 02:57:59;;;;;;;540.78;322.70;;;;;;;24.86;52.11;95008.03;5017784;28;20041;-54
2022/07/01 03:00:25;;;;;;;567.75;345.27;;;;;;;24.82;52.40;95016.50;5019750;28;20021;-54
2022/07/01 03:03:13;;;;;;;660.35;446.70;;;;;;;24.78;52.71;95018.06;5019128;28;20034;-54
2022/07/01 03:05:47;;;;;;;1196.32;811.45;;;;;;;24.79;52.29;95018.81;5019535;28;20026;-53
2022/07/01 03:08:27;;;;;;;172.30;108.43;;;;;;;24.76;52.58;95022.59;5012240;28;20021;-53
2022/07/01 03:10:52;;;;;;;55.72;49.85;;;;;;;24.75;52.57;95026.56;5018454;28;20052;-52
2022/07/01 03:13:28;;;;;;;39.10;35.55;;;;;;;24.69;52.41;95034.81;5015505;28;20053;-52
2022/07/01 03:15:54;;;;;;;36.25;32.83;;;;;;;24.67;52.93;95036.63;5004705;28;20561;-53
2022/07/01 03:18:19;;;;;;;24.75;22.60;;;;;;;24.73;52.70;95040.00;5030771;28;20029;-54
2022/07/01 03:20:51;;;;;;;25.10;22.88;;;;;;;24.72;52.47;95049.44;5026086;28;20040;-53
2022/07/01 03:23:34;;;;;;;26.40;24.13;;;;;;;24.64;52.54;95038.38;5016923;28;20049;-53
2022/07/01 03:25:59;;;;;;;16.08;14.05;;;;;;;24.62;52.81;95046.34;5017193;28;20029;-53
2022/07/01 03:28:25;;;;;;;16.15;14.52;;;;;;;24.66;52.76;95046.06;5004512;28;20029;-53
2022/07/01 03:30:50;;;;;;;23.70;21.25;;;;;;;24.62;53.11;95040.91;5022479;28;20037;-53
2022/07/01 03:33:16;;;;;;;16.10;14.75;;;;;;;24.61;53.21;95046.88;5024533;28;20037;-51
2022/07/01 03:35:45;;;;;;;12.55;9.73;;;;;;;24.63;53.11;95053.28;5022991;28;20385;-53
2022/07/01 03:38:11;;;;;;;19.15;17.50;;;;;;;24.60;53.39;95054.34;5018571;28;20028;-52
2022/07/01 03:40:36;;;;;;;22.30;20.02;;;;;;;24.64;53.11;95043.13;5014472;28;20045;-52
2022/07/01 03:43:02;;;;;;;14.77;13.15;;;;;;;24.63;53.43;95036.88;5019689;28;20033;-52
2022/07/01 03:45:28;;;;;;;18.08;16.33;;;;;;;24.63;53.40;95042.34;5013259;28;20484;-53
2022/07/01 03:47:53;;;;;;;20.02;18.13;;;;;;;24.63;53.41;95038.91;5011035;28;20060;-52
2022/07/01 03:50:21;;;;;;;19.23;17.42;;;;;;;24.59;53.86;95041.19;5008152;28;20044;-53
2022/07/01 03:52:46;;;;;;;15.93;14.40;;;;;;;24.59;54.15;95041.94;5007381;28;20024;-55
2022/07/01 03:55:12;;;;;;;10.30;5.75;;;;;;;24.59;53.79;95046.66;5009049;28;20022;-54
2022/07/01 03:57:38;;;;;;;13.98;12.13;;;;;;;24.62;53.19;95051.06;5003652;28;20029;-54
2022/07/01 04:00:05;;;;;;;12.43;7.82;;;;;;;24.57;53.13;95044.44;5009610;28;20029;-54
2022/07/01 04:02:30;;;;;;;14.38;11.98;;;;;;;24.57;53.60;95055.38;5007074;28;20037;-53
2022/07/01 04:04:55;;;;;;;12.65;11.32;;;;;;;24.59;53.48;95039.19;5011915;28;20028;-54
2022/07/01 04:07:21;;;;;;;15.90;14.32;;;;;;;24.59;53.25;95038.47;5011012;28;20037;-54
2022/07/01 04:09:46;;;;;;;15.57;13.27;;;;;;;24.62;52.83;95040.13;5006205;28;20088;-53
2022/07/01 04:12:12;;;;;;;14.32;12.90;;;;;;;24.59;53.22;95052.84;4991179;28;20048;-54
2022/07/01 04:14:38;;;;;;;16.00;13.32;;;;;;;24.61;53.05;95057.78;4991489;28;20038;-53
2022/07/01 04:17:03;;;;;;;16.98;15.18;;;;;;;24.63;52.75;95052.56;5004731;28;20493;-53
2022/07/01 04:19:29;;;;;;;19.17;17.48;;;;;;;24.70;53.26;95058.16;5010064;28;20762;-53
2022/07/01 04:24:38;;;;;;;16.48;14.77;;;;;;;24.76;53.35;95063.56;5010220;28;20070;-55
2022/07/01 04:27:04;;;;;;;15.35;14.07;;;;;;;24.75;53.58;95064.81;5007302;28;20274;-53
2022/07/01 04:29:30;;;;;;;16.45;12.45;;;;;;;24.71;53.41;95065.09;5005736;28;20071;-53
2022/07/01 04:31:56;;;;;;;17.83;15.73;;;;;;;24.78;53.37;95059.03;4987267;28;20069;-53
2022/07/01 04:34:22;;;;;;;18.42;16.60;;;;;;;24.81;53.16;95065.47;5006413;28;20044;-54
2022/07/01 04:36:47;;;;;;;20.05;18.33;;;;;;;24.94;52.44;95056.06;5017132;28;20097;-55
2022/07/01 04:39:13;;;;;;;21.52;19.58;;;;;;;25.02;52.39;95050.78;5019409;28;20087;-53
2022/07/01 04:44:22;;;;;;;22.08;19.88;;;;;;;25.17;52.55;95059.25;5012026;28;20036;-52
2022/07/01 04:46:48;;;;;;;24.48;22.25;;;;;;;25.27;52.78;95061.09;5019398;28;20056;-53
2022/07/01 04:49:13;;;;;;;21.85;20.02;;;;;;;25.38;52.45;95060.91;5022024;28;20025;-52
2022/07/01 04:51:38;;;;;;;23.75;21.60;;;;;;;25.52;51.90;95059.69;4999990;28;20631;-53
2022/07/01 04:54:05;;;;;;;22.15;19.58;;;;;;;25.60;51.55;95060.56;5012509;28;20492;-54
2022/07/01 04:56:31;;;;;;;23.65;21.50;;;;;;;25.72;51.70;95061.88;5018309;28;20030;-53
2022/07/01 04:58:57;;;;;;;23.13;21.00;;;;;;;25.82;51.14;95053.47;5008304;28;20025;-53
2022/07/01 05:01:22;;;;;;;29.50;25.42;;;;;;;25.92;50.92;95051.81;5012985;28;20088;-53
2022/07/01 05:03:48;;;;;;;23.42;21.48;;;;;;;26.10;50.75;95056.44;5018608;28;20037;-53
2022/07/01 05:06:13;;;;;;;17.05;14.85;;;;;;;26.19;50.55;95056.03;5014106;28;20025;-53
2022/07/01 05:08:39;;;;;;;21.88;19.90;;;;;;;26.15;49.96;95060.34;5017839;28;20033;-54
2022/07/01 05:11:04;;;;;;;19.48;17.27;;;;;;;26.33;49.92;95052.03;5021026;28;20026;-54
2022/07/01 05:13:30;;;;;;;21.20;19.08;;;;;;;26.19;49.59;95061.50;5011079;28;20030;-54
2022/07/01 05:15:55;;;;;;;20.73;17.98;;;;;;;26.21;49.51;95056.22;5021200;28;20281;-54
2022/07/01 05:23:49;;;;;;;18.48;16.67;;;;;;;26.38;49.13;95059.41;5017561;28;20233;-56
2022/07/01 05:26:17;;;;;;;16.52;14.32;;;;;;;26.37;49.28;95057.94;5017388;28;20492;-54
2022/07/01 05:28:44;;;;;;;15.85;14.18;;;;;;;26.37;49.30;95060.69;5008492;28;20092;-54
2022/07/01 05:31:10;;;;;;;22.27;16.75;;;;;;;26.34;49.65;95061.75;4997555;28;20751;-52
2022/07/01 05:33:35;;;;;;;18.40;14.30;;;;;;;26.34;49.49;95056.28;5012316;28;20064;-55
2022/07/01 05:36:01;;;;;;;21.67;19.60;;;;;;;26.55;49.28;95055.09;5009743;28;20038;-51
2022/07/01 05:38:27;;;;;;;22.25;20.13;;;;;;;26.49;48.92;95057.19;5018418;28;20033;-54
2022/07/01 05:40:53;;;;;;;25.02;22.52;;;;;;;26.63;48.70;95060.66;5004758;28;20107;-54
2022/07/01 05:43:19;;;;;;;26.40;24.00;;;;;;;26.57;49.13;95062.78;5013557;28;20032;-54
2022/07/01 05:45:44;;;;;;;20.27;18.13;;;;;;;26.65;48.62;95063.59;5008321;28;20056;-53
2022/07/01 05:48:10;;;;;;;28.77;25.95;;;;;;;26.64;48.64;95059.41;5014177;28;20744;-53
2022/07/01 05:50:35;;;;;;;30.00;27.15;;;;;;;26.65;48.79;95058.88;5010674;28;20038;-53
2022/07/01 05:53:01;;;;;;;32.53;29.40;;;;;;;26.68;48.96;95051.56;5008150;28;20073;-55
2022/07/01 05:55:26;;;;;;;34.40;31.15;;;;;;;26.67;48.94;95061.09;5007976;28;20483;-54
2022/07/01 05:57:52;;;;;;;33.63;30.75;;;;;;;26.77;48.46;95060.84;5008123;28;20056;-54
2022/07/01 06:00:17;;;;;;;38.80;35.15;;;;;;;26.99;48.30;95054.88;5022244;28;20079;-53
2022/07/01 06:02:43;;;;;;;42.05;38.28;;;;;;;27.12;48.17;95056.88;4997883;28;20124;-53
2022/07/01 06:05:08;;;;;;;27.13;24.58;;;;;;;27.15;47.96;95056.53;5008630;28;20025;-53
2022/07/01 06:07:34;;;;;;;40.78;36.85;;;;;;;27.25;47.96;95057.56;5008587;28;20025;-53
2022/07/01 06:09:59;;;;;;;47.65;43.00;;;;;;;27.33;47.70;95061.84;5010645;28;20060;-57
2022/07/01 06:12:25;;;;;;;76.43;55.80;;;;;;;27.18;48.61;95060.94;5002875;28;20115;-53
2022/07/01 06:14:50;;;;;;;142.10;95.05;;;;;;;27.61;47.82;95063.94;5007675;28;20026;-54
2022/07/01 06:17:16;;;;;;;128.48;90.35;;;;;;;27.48;47.70;95059.22;5002274;28;20021;-54
2022/07/01 06:19:41;;;;;;;118.95;86.97;;;;;;;27.35;47.43;95053.06;5004699;28;20528;-54
2022/07/01 06:22:07;;;;;;;125.95;88.88;;;;;;;27.67;47.16;95061.78;4985202;28;20097;-54
2022/07/01 06:24:32;;;;;;;146.05;97.07;;;;;;;27.65;47.11;95075.31;4988629;28;20022;-54
2022/07/01 06:26:59;;;;;;;112.57;82.18;;;;;;;27.70;47.68;95060.72;4984210;28;20528;-54
2022/07/01 06:29:27;;;;;;;138.90;93.68;;;;;;;27.73;47.60;95065.13;4984028;28;20038;-55
2022/07/01 06:31:53;;;;;;;156.50;100.40;;;;;;;27.97;46.10;95066.25;4982183;28;20038;-55
2022/07/01 06:34:18;;;;;;;150.02;99.47;;;;;;;28.36;45.89;95060.50;4994304;28;20021;-54
2022/07/01 06:36:44;;;;;;;159.52;102.43;;;;;;;28.64;45.80;95068.69;4999082;28;20819;-53
2022/07/01 06:39:09;;;;;;;141.07;95.18;;;;;;;28.77;45.27;95061.84;4998766;28;20066;-54
2022/07/01 06:41:35;;;;;;;136.38;93.00;;;;;;;28.94;44.66;95073.06;4985601;28;20037;-54
2022/07/01 06:44:01;;;;;;;156.05;100.88;;;;;;;29.09;45.08;95067.63;4984778;28;20678;-54
2022/07/01 06:46:27;;;;;;;156.25;100.35;;;;;;;29.15;44.91;95079.19;4987121;28;20516;-54
2022/07/01 06:48:52;;;;;;;151.27;99.00;;;;;;;29.19;44.52;95069.31;4997883;28;20026;-55
2022/07/01 06:51:18;;;;;;;174.23;107.60;;;;;;;29.30;44.45;95057.25;4996241;28;20026;-52
2022/07/01 06:53:46;;;;;;;157.27;101.35;;;;;;;29.45;44.44;95068.28;4997172;28;20026;-54
2022/07/01 06:56:12;;;;;;;155.85;102.10;;;;;;;29.38;44.32;95064.22;4999601;28;20038;-53
2022/07/01 06:58:37;;;;;;;149.15;97.03;;;;;;;29.46;44.26;95064.25;4999482;28;20052;-53
2022/07/01 07:01:03;;;;;;;169.63;104.63;;;;;;;29.52;44.39;95064.81;4999596;28;20034;-54
2022/07/01 07:03:29;;;;;;;165.02;104.00;;;;;;;29.54;44.22;95070.50;4998524;28;20026;-54
2022/07/01 07:05:55;;;;;;;178.25;108.93;;;;;;;29.66;44.36;95055.09;4989973;28;20073;-54
2022/07/01 07:08:20;;;;;;;176.23;107.88;;;;;;;29.77;44.27;95064.44;4996993;28;20037;-56
2022/07/01 07:10:46;;;;;;;236.25;130.40;;;;;;;29.70;44.46;95062.44;5004772;28;20022;-55
2022/07/01 07:13:11;;;;;;;241.63;130.65;;;;;;;29.79;44.48;95064.69;5003116;28;20496;-54
2022/07/01 07:15:41;;;;;;;251.77;135.32;;;;;;;29.85;44.50;95056.97;5004085;28;20376;-54
2022/07/01 07:18:07;;;;;;;186.18;111.43;;;;;;;29.84;44.93;95058.25;4996843;28;20033;-54
2022/07/01 07:20:33;;;;;;;179.82;109.68;;;;;;;29.90;44.89;95069.09;5005097;28;20107;-54
2022/07/01 07:22:58;;;;;;;188.13;112.40;;;;;;;30.02;43.83;95059.16;5004568;28;20058;-54
2022/07/01 07:25:24;;;;;;;178.77;108.88;;;;;;;30.06;43.47;95065.78;5012189;28;20030;-56
2022/07/01 07:27:50;;;;;;;180.70;108.85;;;;;;;30.14;42.83;95060.25;5009652;28;20113;-55
2022/07/01 07:30:16;;;;;;;151.15;97.95;;;;;;;30.16;43.28;95068.69;5009507;28;20508;-55
2022/07/01 07:32:41;;;;;;;202.38;118.18;;;;;;;30.17;42.68;95064.66;4991431;28;20422;-56
2022/07/01 07:35:08;;;;;;;195.52;115.65;;;;;;;30.28;42.75;95070.50;5013868;28;20030;-56
2022/07/01 07:37:33;;;;;;;182.65;110.43;;;;;;;30.27;42.94;95063.53;5004993;28;20121;-54
2022/07/01 07:40:01;;;;;;;167.18;103.97;;;;;;;30.27;42.81;95060.78;5011058;28;20429;-54
2022/07/01 07:42:27;;;;;;;175.20;107.93;;;;;;;30.21;42.70;95054.75;5010239;28;20040;-55
2022/07/01 07:44:52;;;;;;;187.65;109.57;;;;;;;30.27;42.97;95058.03;5008676;28;20164;-55
2022/07/01 07:47:18;;;;;;;168.27;103.72;;;;;;;30.36;42.95;95060.25;5008076;28;20029;-56
2022/07/01 07:49:43;;;;;;;168.77;105.22;;;;;;;30.15;43.03;95062.47;5015601;28;20038;-54
2022/07/01 07:52:09;;;;;;;171.57;105.50;;;;;;;30.18;43.12;95055.84;5017591;28;20022;-54
2022/07/01 07:54:34;;;;;;;179.32;107.82;;;;;;;30.23;42.93;95057.66;5012624;28;20045;-54
2022/07/01 07:57:00;;;;;;;174.25;106.35;;;;;;;30.31;43.10;95061.13;5015702;28;20033;-54
2022/07/01 07:59:25;;;;;;;185.88;110.00;;;;;;;30.33;42.98;95061.34;5007561;28;20060;-54
2022/07/01 08:01:51;;;;;;;194.00;114.75;;;;;;;30.30;42.88;95051.41;5010467;28;20421;-54
2022/07/01 08:04:16;;;;;;;185.35;111.25;;;;;;;30.32;42.94;95059.84;5009652;28;20041;-54
2022/07/01 08:06:42;;;;;;;171.98;105.60;;;;;;;30.33;42.84;95044.78;4991044;28;20645;-53
2022/07/01 08:09:07;;;;;;;182.48;110.60;;;;;;;30.32;42.95;95043.31;4990388;28;20041;-53
2022/07/01 08:11:33;;;;;;;171.07;106.80;;;;;;;30.27;43.15;95044.25;5007159;28;20425;-54
2022/07/01 08:13:58;;;;;;;160.77;102.82;;;;;;;30.40;42.84;95044.06;5006321;28;20034;-52
2022/07/01 08:16:24;;;;;;;201.15;116.80;;;;;;;30.32;43.08;95043.31;5010422;28;20484;-51
2022/07/01 08:18:49;;;;;;;195.57;115.30;;;;;;;30.37;42.78;95045.91;5008983;28;20038;-54
2022/07/01 08:21:15;;;;;;;193.60;113.22;;;;;;;30.35;43.02;95034.69;5006338;28;20052;-55
2022/07/01 08:23:40;;;;;;;232.05;127.65;;;;;;;30.47;42.91;95032.28;5017218;28;20042;-55
2022/07/01 08:26:06;;;;;;;217.95;122.45;;;;;;;30.46;42.87;95034.28;5013003;28;20914;-54
2022/07/01 08:28:31;;;;;;;201.52;115.82;;;;;;;30.46;43.00;95019.78;5010345;28;20024;-54
2022/07/01 08:30:57;;;;;;;174.82;107.72;;;;;;;30.50;43.01;95034.66;4990710;28;20476;-55
2022/07/01 08:33:22;;;;;;;183.98;110.40;;;;;;;30.52;43.01;95029.31;5006585;28;20079;-53
2022/07/01 08:35:47;;;;;;;179.63;108.90;;;;;;;30.55;43.04;95030.97;5006799;28;20026;-53
2022/07/01 08:38:13;;;;;;;188.02;111.72;;;;;;;30.41;43.25;95029.00;5007306;28;20512;-54
2022/07/01 08:40:38;;;;;;;188.25;112.13;;;;;;;30.49;43.19;95029.69;5005496;28;20044;-54
2022/07/01 08:43:05;;;;;;;206.65;118.57;;;;;;;30.54;43.20;95031.50;4989877;28;20038;-54
2022/07/01 08:45:32;;;;;;;213.65;120.25;;;;;;;30.57;42.67;95024.88;5008376;28;20556;-54
2022/07/01 08:48:00;;;;;;;214.88;122.18;;;;;;;30.59;43.04;95027.84;5008338;28;20040;-55
2022/07/01 08:50:44;;;;;;;170.52;105.50;;;;;;;30.58;42.75;95026.38;5001330;28;20025;-53
2022/07/01 08:53:10;;;;;;;268.08;141.63;;;;;;;30.54;42.67;95032.25;5007430;28;20068;-53
2022/07/01 08:56:40;;;;;;;294.77;149.23;;;;;;;30.54;42.76;95026.75;5004697;28;20041;-54
2022/07/01 08:58:22;;;;;;;271.20;141.65;;;;;;;30.73;42.90;95033.28;5008064;28;20037;-53
2022/07/01 09:00:47;;;;;;;243.85;130.98;;;;;;;30.67;42.80;95024.50;5011034;28;20440;-53
2022/07/01 09:03:13;;;;;;;140.27;94.40;;;;;;;30.68;42.69;95025.94;5024770;28;20064;-54
2022/07/01 09:05:38;;;;;;;149.82;98.57;;;;;;;30.69;42.20;95032.94;4990814;28;20038;-54
2022/07/01 09:08:05;;;;;;;162.35;102.72;;;;;;;30.76;42.27;95032.19;5013722;28;20032;-55
2022/07/01 09:10:33;;;;;;;158.38;101.28;;;;;;;30.65;42.34;95016.03;5006825;28;20030;-52
2022/07/01 09:13:04;;;;;;;152.90;98.43;;;;;;;30.77;42.36;95019.84;5021519;28;20021;-55
2022/07/01 09:15:31;;;;;;;112.13;80.40;;;;;;;30.79;42.48;95025.56;5024446;28;20064;-53
2022/07/01 09:18:10;;;;;;;134.02;91.85;;;;;;;30.83;42.15;95020.38;5032994;28;20033;-53
2022/07/01 09:20:37;;;;;;;156.10;99.43;;;;;;;30.82;42.10;95023.69;5029556;28;20040;-55
2022/07/01 09:23:12;;;;;;;149.70;97.85;;;;;;;30.79;42.11;95025.56;5005221;28;20073;-54
2022/07/01 09:25:43;;;;;;;136.60;92.30;;;;;;;30.79;42.12;95024.81;4984854;28;20041;-54
2022/07/01 09:28:15;;;;;;;122.45;86.88;;;;;;;30.86;42.02;95021.28;4983703;28;20003;-54
2022/07/01 09:30:44;;;;;;;125.38;88.47;;;;;;;30.88;41.92;95033.25;4979177;28;20042;-54
2022/07/01 09:33:20;;;;;;;140.25;94.55;;;;;;;30.81;42.07;95017.44;4988478;28;20039;-59
2022/07/01 09:35:48;;;;;;;116.53;83.47;;;;;;;30.95;41.60;95012.44;4990958;28;20022;-53
2022/07/01 09:38:14;;;;;;;119.80;85.28;;;;;;;30.94;41.67;95014.47;4992304;28;20045;-52
2022/07/01 09:40:51;;;;;;;162.15;103.30;;;;;;;30.99;41.47;95010.75;4996370;28;20058;-56
2022/07/01 09:43:17;;;;;;;198.80;115.63;;;;;;;31.00;41.28;95012.25;4983492;28;20520;-56
2022/07/01 09:46:06;;;;;;;195.98;114.47;;;;;;;30.98;41.31;95009.28;4977870;28;20076;-54
2022/07/01 09:48:32;;;;;;;159.77;102.40;;;;;;;31.00;41.11;95003.97;4974592;28;20038;-54
2022/07/01 09:50:57;;;;;;;124.20;86.22;;;;;;;30.95;41.45;95007.66;4970725;28;20114;-53
2022/07/01 09:53:23;;;;;;;122.32;86.93;;;;;;;30.89;41.31;94998.13;4976732;28;20026;-53
2022/07/01 09:55:49;;;;;;;136.85;91.57;;;;;;;30.97;41.43;95002.31;4993975;28;20034;-54
2022/07/01 09:58:14;;;;;;;136.32;92.72;;;;;;;31.05;41.38;94994.72;5002796;28;20860;-57
2022/07/01 10:00:40;;;;;;;101.18;77.45;;;;;;;31.10;41.19;94993.78;4991688;28;20081;-53
2022/07/01 10:03:06;;;;;;;121.80;85.55;;;;;;;31.06;40.94;95003.72;4966471;28;20022;-54
2022/07/01 10:05:36;;;;;;;147.38;96.63;;;;;;;31.13;40.99;94989.16;4990314;28;20026;-53
2022/07/01 10:08:20;;;;;;;;;;;;;;;30.99;41.03;94987.97;4983433;28;20026;-55
2022/07/01 10:10:59;;;;;;;280.67;143.35;;;;;;;31.15;40.94;94990.06;4968217;28;19929;-53
2022/07/01 10:13:26;;;;;;;273.30;142.50;;;;;;;30.84;41.93;94983.22;4973380;28;20042;-55
2022/07/01 10:15:53;;;;;;;220.20;123.55;;;;;;;30.52;40.56;94990.00;4961324;28;20035;-55
2022/07/01 10:18:22;;;;;;;194.55;113.43;;;;;;;29.66;43.04;94983.53;4961929;28;20022;-54
2022/07/01 10:20:48;;;;;;;178.73;106.88;;;;;;;29.44;44.00;94995.25;4965086;28;20022;-53
2022/07/01 10:23:13;;;;;;;193.00;113.72;;;;;;;29.08;44.69;94991.16;4998319;28;20076;-54
2022/07/01 10:25:43;;;;;;;177.98;107.72;;;;;;;28.88;44.99;94990.03;5011505;28;20124;-54
2022/07/01 10:28:17;;;;;;;176.55;106.32;;;;;;;28.71;46.09;94991.06;5011518;28;20025;-53
2022/07/01 10:30:49;;;;;;;139.30;92.93;;;;;;;28.42;46.63;94979.38;5020623;28;20025;-53
2022/07/01 10:33:44;;;;;;;116.95;84.07;;;;;;;28.22;46.91;94987.72;5022256;28;20036;-54
2022/07/01 10:36:21;;;;;;;122.28;86.60;;;;;;;28.08;47.01;94977.38;5001396;28;20145;-52
2022/07/01 10:39:10;;;;;;;115.88;83.43;;;;;;;27.96;47.36;94974.16;5017596;28;20850;-56
2022/07/01 10:41:36;;;;;;;122.03;85.97;;;;;;;27.95;47.21;94967.22;5019901;28;20068;-54
2022/07/01 10:44:04;;;;;;;108.65;80.90;;;;;;;27.82;47.47;94964.59;5014453;28;20509;-54
2022/07/01 10:46:45;;;;;;;122.43;85.13;;;;;;;27.74;48.19;94963.81;5009692;28;20656;-54
2022/07/01 10:49:19;;;;;;;118.50;84.78;;;;;;;27.70;48.04;94956.44;4989307;28;20397;-53
2022/07/01 10:51:54;;;;;;;99.65;77.18;;;;;;;27.61;48.06;94951.44;5018786;28;20013;-53
2022/07/01 10:57:16;;;;;;;122.20;86.90;;;;;;;27.49;48.39;94955.75;5012729;28;20030;-53
2022/07/01 11:00:02;;;;;;;158.15;102.63;;;;;;;27.43;48.58;94955.16;5025801;28;20021;-54
2022/07/01 11:02:34;;;;;;;306.77;156.93;;;;;;;27.40;48.50;94950.72;5018111;28;20059;-55
2022/07/01 11:05:09;;;;;;;180.75;110.65;;;;;;;27.37;48.66;94957.28;5016632;28;20072;-53
2022/07/01 11:07:36;;;;;;;188.63;112.82;;;;;;;27.29;48.86;94964.69;5004902;28;20453;-53
2022/07/01 11:10:04;;;;;;;226.93;126.55;;;;;;;27.22;49.03;94957.16;5019029;28;20589;-54
2022/07/01 11:12:29;;;;;;;307.77;160.50;;;;;;;27.26;48.47;94946.56;5008646;28;20029;-52
2022/07/01 11:14:57;;;;;;;138.38;93.75;;;;;;;27.16;48.79;94947.59;5017195;28;20029;-53
2022/07/01 11:17:23;;;;;;;189.23;112.93;;;;;;;27.09;49.24;94954.47;5013034;28;20022;-53
2022/07/01 11:19:49;;;;;;;161.27;104.22;;;;;;;27.00;49.33;94954.94;5025444;28;20018;-52
2022/07/01 11:22:19;;;;;;;199.95;118.05;;;;;;;26.99;49.13;94945.25;5023844;28;20092;-54
2022/07/01 11:24:44;;;;;;;207.25;120.00;;;;;;;26.96;49.16;94940.84;5011329;28;20026;-54
2022/07/01 11:27:10;;;;;;;135.07;93.38;;;;;;;26.92;48.78;94939.69;5008235;28;20037;-52